Time;durP1;ratioP1;P1;durP2;ratioP2;P2;SDS_P1;SDS_P2;PMS_P1;PMS_P2;Temp;Humidity;BMP_temperature;BMP_pressure;BME280_temperature;BME280_humidity;BME280_pressure;Samples;Min_cycle;Max_cycle;Signal;HPM_P1;HPM_P2
2023/04/25 00:00:14;;;;;;;56.05;53.25;;;;;;;8.35;80.09;97494.44;5031237;28;20026;-73
2023/04/25 00:02:39;;;;;;;52.78;50.17;;;;;;;8.19;79.84;97481.84;5029278;28;20049;-73
2023/04/25 00:05:05;;;;;;;49.97;47.45;;;;;;;8.54;79.61;97480.75;5013149;28;20028;-73
2023/04/25 00:07:32;;;;;;;51.90;49.30;;;;;;;8.25;79.77;97483.56;5031079;28;20048;-75
2023/04/25 00:09:57;;;;;;;54.40;51.60;;;;;;;8.44;80.15;97480.63;5029997;28;20025;-74
2023/04/25 00:12:22;;;;;;;50.33;47.80;;;;;;;8.26;79.61;97495.13;5013369;28;20407;-74
2023/04/25 00:14:49;;;;;;;54.80;52.20;;;;;;;8.24;79.89;97497.19;5029585;28;20028;-74
2023/04/25 00:17:16;;;;;;;54.90;52.10;;;;;;;8.39;80.54;97485.91;5029901;28;20034;-74
2023/04/25 00:19:41;;;;;;;60.55;57.65;;;;;;;8.03;82.14;97506.00;5029956;28;20026;-73
2023/04/25 00:22:07;;;;;;;65.65;62.50;;;;;;;8.00;82.91;97503.81;5029844;28;20483;-74
2023/04/25 00:24:32;;;;;;;70.45;66.97;;;;;;;8.28;81.32;97490.34;4994540;28;20049;-74
2023/04/25 00:26:58;;;;;;;66.03;62.90;;;;;;;8.01;81.57;97503.56;5027975;28;20034;-73
2023/04/25 00:29:23;;;;;;;70.72;67.32;;;;;;;7.91;81.42;97481.97;5016835;28;20025;-74
2023/04/25 00:31:48;;;;;;;67.38;64.28;;;;;;;8.18;81.64;97501.69;5016530;28;20124;-73
2023/04/25 00:34:14;;;;;;;66.45;63.30;;;;;;;8.30;81.50;97488.22;5033057;28;20026;-75
2023/04/25 00:36:39;;;;;;;66.75;63.55;;;;;;;8.29;81.16;97489.25;5032962;28;20491;-75
2023/04/25 00:39:06;;;;;;;59.55;56.75;;;;;;;8.53;80.92;97492.53;5032920;28;20026;-75
2023/04/25 00:41:32;;;;;;;52.60;50.17;;;;;;;8.31;80.42;97487.13;5016783;28;20095;-74
2023/04/25 00:43:59;;;;;;;57.45;54.75;;;;;;;8.29;80.99;97489.25;5032545;28;20033;-74
2023/04/25 00:46:24;;;;;;;54.70;52.00;;;;;;;8.20;80.86;97472.75;5016243;28;20075;-74
2023/04/25 00:48:50;;;;;;;61.75;58.78;;;;;;;8.33;79.91;97480.47;5016153;28;20426;-73
2023/04/25 00:51:20;;;;;;;61.92;59.00;;;;;;;8.40;81.25;97474.13;5016088;28;20463;-75
2023/04/25 00:53:46;;;;;;;63.83;60.78;;;;;;;8.45;80.87;97472.31;5024360;28;20459;-74
2023/04/25 00:56:12;;;;;;;59.95;57.03;;;;;;;8.35;81.18;97466.81;5013601;28;20392;-74
2023/04/25 00:58:38;;;;;;;55.75;53.13;;;;;;;8.28;80.75;97464.28;5016000;28;20025;-75
2023/04/25 01:01:03;;;;;;;59.72;56.85;;;;;;;8.35;81.23;97462.25;5031608;28;20086;-75
2023/04/25 01:03:32;;;;;;;62.13;58.97;;;;;;;8.11;81.23;97460.81;5015713;28;20565;-75
2023/04/25 01:05:58;;;;;;;63.15;60.05;;;;;;;7.89;82.52;97461.84;5015977;28;20032;-76
2023/04/25 01:08:25;;;;;;;68.78;65.47;;;;;;;7.90;82.74;97444.69;5015991;28;20037;-75
2023/04/25 01:10:50;;;;;;;72.55;69.05;;;;;;;8.04;82.52;97449.47;5032384;28;20028;-75
2023/04/25 01:13:15;;;;;;;62.90;59.97;;;;;;;8.03;81.15;97455.88;5015551;28;20033;-75
2023/04/25 01:15:41;;;;;;;61.60;58.65;;;;;;;8.01;81.50;97447.25;5032213;28;20022;-74
2023/04/25 01:18:06;;;;;;;71.03;67.63;;;;;;;7.71;82.65;97459.38;5032288;28;20479;-73
2023/04/25 01:20:33;;;;;;;73.55;69.95;;;;;;;7.53;83.08;97445.19;5015516;28;20032;-73
2023/04/25 01:22:58;;;;;;;67.43;64.13;;;;;;;7.84;83.22;97448.34;4999110;28;20541;-72
2023/04/25 01:25:24;;;;;;;67.28;64.07;;;;;;;8.19;82.24;97448.88;5015508;28;20025;-73
2023/04/25 01:27:50;;;;;;;69.45;66.15;;;;;;;7.71;82.34;97459.38;5015715;28;20042;-75
2023/04/25 01:30:15;;;;;;;69.72;66.50;;;;;;;7.80;82.84;97442.66;5015407;28;20030;-75
2023/04/25 01:32:42;;;;;;;71.20;67.78;;;;;;;7.74;83.00;97449.00;5015794;28;20026;-74
2023/04/25 01:35:09;;;;;;;70.78;67.22;;;;;;;7.80;83.00;97442.66;5014607;28;20379;-74
2023/04/25 01:37:42;;;;;;;68.45;65.25;;;;;;;7.99;82.06;97435.97;4998353;28;20424;-73
2023/04/25 01:40:10;;;;;;;63.50;60.50;;;;;;;7.80;81.23;97448.03;5015477;28;20450;-73
2023/04/25 01:42:37;;;;;;;65.43;62.35;;;;;;;8.03;81.57;97442.47;5015282;28;20040;-73
2023/04/25 01:45:04;;;;;;;62.75;59.75;;;;;;;8.08;81.64;97433.69;5031517;28;20048;-73
2023/04/25 01:47:30;;;;;;;67.30;64.10;;;;;;;8.10;81.58;97432.38;4998818;28;20087;-74
2023/04/25 01:49:55;;;;;;;62.95;59.95;;;;;;;7.95;81.74;97440.22;5018240;28;20069;-73
2023/04/25 01:52:21;;;;;;;60.83;57.83;;;;;;;8.00;81.17;97426.06;5015199;28;20017;-73
2023/04/25 01:54:47;;;;;;;58.75;55.88;;;;;;;8.06;81.31;97439.31;5014029;28;20033;-73
2023/04/25 01:57:14;;;;;;;61.47;58.58;;;;;;;8.13;81.59;97431.88;5015159;28;20022;-73
2023/04/25 01:59:41;;;;;;;58.95;56.25;;;;;;;8.01;81.19;97417.78;5015290;28;20063;-74
2023/04/25 02:02:23;;;;;;;57.90;54.80;;;;;;;8.15;80.93;97428.94;5016243;28;20021;-74
2023/04/25 02:04:49;;;;;;;56.60;53.90;;;;;;;7.93;82.45;97428.94;5014613;28;20087;-74
2023/04/25 02:07:15;;;;;;;63.97;60.90;;;;;;;8.15;81.96;97424.41;5014897;28;20048;-73
2023/04/25 02:09:50;;;;;;;70.07;66.82;;;;;;;8.12;81.77;97419.53;5016346;28;20450;-72
2023/04/25 02:12:17;;;;;;;63.47;60.53;;;;;;;8.14;82.09;97422.81;5031062;28;20041;-73
2023/04/25 02:15:16;;;;;;;60.17;57.33;;;;;;;8.17;80.63;97416.91;5019052;28;20047;-72
2023/04/25 02:17:49;;;;;;;58.33;55.53;;;;;;;8.29;80.60;97424.88;5031090;28;20033;-73
2023/04/25 02:20:15;;;;;;;60.92;58.10;;;;;;;8.16;82.14;97423.34;5031133;28;20505;-74
2023/04/25 02:22:42;;;;;;;56.47;53.78;;;;;;;8.27;81.33;97422.47;5014706;28;20052;-73
2023/04/25 02:25:08;;;;;;;58.25;55.47;;;;;;;8.10;81.97;97421.66;5014263;28;20034;-72
2023/04/25 02:27:35;;;;;;;56.10;53.40;;;;;;;7.99;81.33;97414.53;5014510;28;20017;-73
2023/04/25 02:30:00;;;;;;;60.20;57.30;;;;;;;7.95;82.07;97421.44;5014384;28;20091;-73
2023/04/25 02:32:26;;;;;;;61.50;58.53;;;;;;;8.12;82.90;97424.88;5030870;28;20026;-73
2023/04/25 02:34:52;;;;;;;62.72;59.42;;;;;;;8.17;81.93;97426.81;5014022;28;20095;-73
2023/04/25 02:37:19;;;;;;;65.97;62.70;;;;;;;8.19;82.85;97425.53;5014457;28;20121;-73
2023/04/25 02:39:44;;;;;;;61.47;58.47;;;;;;;8.04;82.33;97414.59;5014263;28;20057;-73
2023/04/25 02:42:11;;;;;;;61.63;58.58;;;;;;;8.17;81.89;97416.91;5014230;28;20021;-72
2023/04/25 02:44:36;;;;;;;59.75;56.65;;;;;;;7.86;82.13;97414.91;5030330;28;20483;-72
2023/04/25 02:47:04;;;;;;;61.13;58.13;;;;;;;7.93;83.20;97412.84;5030027;28;20029;-73
2023/04/25 02:49:29;;;;;;;63.40;60.30;;;;;;;8.00;82.58;97408.13;5030698;28;20503;-72
2023/04/25 02:51:55;;;;;;;66.10;62.72;;;;;;;7.71;82.84;97401.25;5031669;28;20025;-73
2023/04/25 02:54:20;;;;;;;68.07;64.85;;;;;;;7.92;83.04;97405.03;5030909;28;20029;-74
2023/04/25 02:56:47;;;;;;;72.70;69.15;;;;;;;7.83;83.04;97403.84;5016286;28;20032;-73
2023/04/25 02:59:18;;;;;;;66.00;62.75;;;;;;;8.01;82.44;97412.41;5030339;28;20087;-74
2023/04/25 03:01:45;;;;;;;62.05;59.05;;;;;;;8.05;82.83;97402.81;5012961;28;20041;-74
2023/04/25 03:04:10;;;;;;;67.47;64.07;;;;;;;8.00;82.87;97400.09;5013865;28;20116;-74
2023/04/25 03:06:35;;;;;;;66.97;63.67;;;;;;;8.07;82.62;97400.72;5013694;28;20045;-74
2023/04/25 03:09:01;;;;;;;70.45;66.95;;;;;;;7.63;83.92;97401.69;5030320;28;20106;-74
2023/04/25 03:11:27;;;;;;;71.93;68.43;;;;;;;7.84;83.32;97400.91;5013927;28;20151;-74
2023/04/25 03:13:52;;;;;;;68.47;64.93;;;;;;;7.73;83.57;97401.81;5013707;28;20386;-74
2023/04/25 03:16:19;;;;;;;68.78;65.28;;;;;;;7.83;82.76;97404.66;5014115;28;20079;-74
2023/04/25 03:18:44;;;;;;;64.95;61.53;;;;;;;7.74;83.40;97395.41;5030200;28;20029;-74
2023/04/25 03:21:10;;;;;;;61.42;58.38;;;;;;;7.94;82.59;97401.06;5030427;28;20042;-74
2023/04/25 03:23:36;;;;;;;65.75;62.33;;;;;;;7.78;83.14;97401.91;5029722;28;20030;-74
2023/04/25 03:26:01;;;;;;;67.85;64.25;;;;;;;7.85;84.09;97391.81;5030308;28;20490;-73
2023/04/25 03:28:26;;;;;;;65.15;61.78;;;;;;;7.58;83.15;97396.25;5031639;28;20497;-75
2023/04/25 03:30:54;;;;;;;63.28;60.00;;;;;;;7.50;84.34;97405.50;5030127;28;20498;-75
2023/04/25 03:33:19;;;;;;;71.45;67.00;;;;;;;7.28;86.23;97411.81;5013459;28;20033;-74
2023/04/25 03:35:45;;;;;;;72.07;68.28;;;;;;;7.55;86.10;97412.78;5014772;28;20029;-75
2023/04/25 03:38:10;;;;;;;69.72;66.13;;;;;;;7.31;85.80;97411.31;5013618;28;20116;-75
2023/04/25 03:40:38;;;;;;;69.55;65.75;;;;;;;7.37;86.83;97418.41;5029994;28;20034;-75
2023/04/25 03:43:08;;;;;;;70.40;66.55;;;;;;;7.38;86.50;97406.63;5029637;28;20029;-74
2023/04/25 03:45:35;;;;;;;70.55;66.43;;;;;;;7.30;87.78;97420.44;5029848;28;20120;-73
2023/04/25 03:48:00;;;;;;;72.65;68.60;;;;;;;7.07;87.74;97421.34;5029898;28;20112;-74
2023/04/25 03:50:27;;;;;;;68.35;64.45;;;;;;;7.05;88.08;97420.00;5029722;28;20116;-74
2023/04/25 03:52:53;;;;;;;70.43;66.40;;;;;;;7.13;87.06;97416.91;5000088;28;20515;-74
2023/04/25 03:55:18;;;;;;;69.10;65.13;;;;;;;7.10;88.91;97422.75;5021724;28;20026;-74
2023/04/25 03:57:44;;;;;;;69.20;65.28;;;;;;;7.14;88.18;97426.56;5007296;28;20120;-74
2023/04/25 04:00:10;;;;;;;66.30;62.33;;;;;;;7.09;88.46;97423.81;5015393;28;20483;-75
2023/04/25 04:02:41;;;;;;;66.88;63.38;;;;;;;7.20;86.53;97423.75;5034221;28;20022;-74
2023/04/25 04:05:09;;;;;;;64.90;61.03;;;;;;;7.07;88.09;97420.56;5017010;28;20025;-74
2023/04/25 04:07:39;;;;;;;67.13;63.28;;;;;;;7.10;87.63;97423.56;5017433;28;20030;-75
2023/04/25 04:10:07;;;;;;;65.13;61.53;;;;;;;7.10;88.75;97430.78;5017188;28;20088;-75
2023/04/25 04:12:36;;;;;;;66.53;62.72;;;;;;;7.08;88.97;97417.63;5033334;28;20029;-73
2023/04/25 04:15:05;;;;;;;69.65;65.82;;;;;;;7.04;88.74;97421.84;5033301;28;20457;-73
2023/04/25 04:17:32;;;;;;;65.05;61.53;;;;;;;7.09;88.41;97429.16;5017161;28;20387;-75
2023/04/25 04:19:57;;;;;;;67.05;63.38;;;;;;;7.23;88.76;97430.47;5016808;28;20037;-74
2023/04/25 04:22:23;;;;;;;65.50;61.80;;;;;;;7.03;89.86;97430.09;5016569;28;20037;-74
2023/04/25 04:24:51;;;;;;;62.58;59.08;;;;;;;7.00;88.75;97428.75;5015986;28;20373;-74
2023/04/25 04:27:21;;;;;;;62.88;59.50;;;;;;;6.98;89.29;97439.69;4995277;28;20105;-72
2023/04/25 04:29:53;;;;;;;65.00;61.33;;;;;;;6.85;89.71;97445.34;4998788;28;20411;-72
2023/04/25 04:32:41;;;;;;;58.97;55.88;;;;;;;6.79;89.53;97435.56;5007525;28;20048;-74
2023/04/25 04:35:08;;;;;;;57.78;54.50;;;;;;;6.74;90.21;97445.38;5012896;28;20034;-74
2023/04/25 04:37:34;;;;;;;57.42;54.35;;;;;;;6.75;89.59;97442.44;5018145;28;20040;-74
2023/04/25 04:40:05;;;;;;;59.90;56.70;;;;;;;6.80;90.21;97447.91;5014875;28;20030;-74
2023/04/25 04:42:42;;;;;;;59.55;56.42;;;;;;;6.70;89.33;97439.69;5032805;28;20487;-74
2023/04/25 04:45:16;;;;;;;58.92;55.53;;;;;;;6.83;89.85;97452.78;5012502;28;20029;-74
2023/04/25 04:48:08;;;;;;;60.38;57.13;;;;;;;6.90;89.38;97452.63;5028284;28;20116;-75
2023/04/25 04:50:44;;;;;;;61.92;58.60;;;;;;;6.77;89.78;97443.03;5008322;28;20500;-74
2023/04/25 04:53:22;;;;;;;58.63;55.45;;;;;;;6.78;90.16;97455.38;5000448;28;20056;-75
2023/04/25 04:55:51;;;;;;;59.63;56.47;;;;;;;6.79;90.02;97456.19;5013957;28;20034;-74
2023/04/25 04:58:52;;;;;;;59.17;55.83;;;;;;;6.76;90.11;97457.47;4999402;28;20025;-75
2023/04/25 05:01:35;;;;;;;60.67;57.15;;;;;;;6.78;89.89;97454.53;5018278;28;20034;-74
2023/04/25 05:04:08;;;;;;;58.35;55.35;;;;;;;7.18;89.23;97465.19;5016803;28;20368;-75
2023/04/25 05:06:45;;;;;;;57.67;54.53;;;;;;;7.06;88.52;97467.94;5018496;28;20026;-76
2023/04/25 05:09:26;;;;;;;62.55;59.35;;;;;;;7.25;87.53;97472.03;5016070;28;21254;-74
2023/04/25 05:12:10;;;;;;;59.83;56.78;;;;;;;7.24;86.04;97467.72;5023121;28;20041;-73
2023/04/25 05:15:02;;;;;;;57.17;54.33;;;;;;;7.26;86.85;97472.84;5017488;28;20033;-73
2023/04/25 05:17:51;;;;;;;61.47;58.42;;;;;;;7.09;86.66;97467.47;5004044;28;20033;-74
2023/04/25 05:20:24;;;;;;;59.28;56.25;;;;;;;6.95;86.23;97477.63;5003320;28;20034;-73
2023/04/25 05:23:03;;;;;;;61.25;57.90;;;;;;;7.09;87.81;97472.00;5005277;28;20044;-74
2023/04/25 05:26:01;;;;;;;55.35;52.70;;;;;;;7.03;81.82;97473.75;5010862;28;20088;-73
2023/04/25 05:28:59;;;;;;;50.78;48.28;;;;;;;6.97;82.26;97467.50;5016690;28;20044;-73
2023/04/25 05:31:36;;;;;;;41.15;39.10;;;;;;;7.07;79.97;97468.75;5017304;28;20127;-73
2023/04/25 05:34:08;;;;;;;28.67;27.27;;;;;;;6.85;79.72;97465.91;5016194;28;20021;-73
2023/04/25 05:36:42;;;;;;;28.75;27.05;;;;;;;7.14;79.65;97470.19;5045574;23;20037;-72
2023/04/25 05:39:08;;;;;;;37.55;35.70;;;;;;;7.00;81.38;97468.09;5015004;28;20061;-73
2023/04/25 05:41:52;;;;;;;30.52;28.92;;;;;;;7.28;79.55;97468.06;5032202;28;20076;-74
2023/04/25 05:44:47;;;;;;;34.83;32.97;;;;;;;7.19;80.65;97477.53;4959660;28;20085;-73
2023/04/25 05:47:21;;;;;;;40.25;38.22;;;;;;;7.02;81.70;97476.69;5003775;28;20528;-73
2023/04/25 05:50:10;;;;;;;55.05;52.35;;;;;;;7.15;82.85;97485.22;5005256;28;20037;-74
2023/04/25 05:52:44;;;;;;;49.95;47.42;;;;;;;6.93;82.54;97486.97;5005078;28;20487;-73
2023/04/25 05:55:22;;;;;;;52.20;49.58;;;;;;;7.14;82.74;97496.19;5024232;28;20034;-73
2023/04/25 05:57:48;;;;;;;46.40;44.30;;;;;;;7.32;81.21;97498.66;5011670;28;20045;-74
2023/04/25 06:00:15;;;;;;;53.22;50.45;;;;;;;7.47;81.99;97497.06;4995461;28;20151;-73
2023/04/25 06:02:42;;;;;;;54.80;52.22;;;;;;;7.36;82.98;97495.25;4995740;28;20042;-73
2023/04/25 06:05:09;;;;;;;58.67;55.72;;;;;;;7.54;83.93;97500.38;5011468;28;20065;-73
2023/04/25 06:07:35;;;;;;;62.13;59.13;;;;;;;7.33;83.47;97505.63;4995185;28;20044;-74
2023/04/25 06:10:03;;;;;;;64.40;60.97;;;;;;;7.51;85.50;97497.41;4995488;28;20026;-73
2023/04/25 06:12:29;;;;;;;65.72;62.03;;;;;;;7.51;85.79;97503.53;5041323;28;20340;-73
2023/04/25 06:14:54;;;;;;;66.55;62.90;;;;;;;7.37;87.40;97502.25;5011428;28;20502;-74
2023/04/25 06:17:20;;;;;;;70.50;66.50;;;;;;;7.17;87.99;97501.03;4995920;28;20065;-75
2023/04/25 06:19:48;;;;;;;71.82;67.53;;;;;;;7.51;87.13;97497.41;5023058;28;20036;-77
2023/04/25 06:22:14;;;;;;;71.38;67.07;;;;;;;7.57;87.67;97493.75;5010654;28;20030;-74
2023/04/25 06:24:40;;;;;;;70.72;66.43;;;;;;;7.51;87.58;97492.81;5010646;28;20018;-74
2023/04/25 06:27:06;;;;;;;69.53;65.30;;;;;;;7.60;89.04;97495.94;5011218;28;20030;-74
2023/04/25 06:29:31;;;;;;;64.45;60.45;;;;;;;7.41;87.62;97494.53;5011109;28;20265;-74
2023/04/25 06:31:57;;;;;;;58.22;55.17;;;;;;;7.94;87.00;97491.38;5000278;28;20044;-73
2023/04/25 06:34:23;;;;;;;66.80;63.10;;;;;;;8.14;85.65;97489.84;5014337;28;20025;-74
2023/04/25 06:36:48;;;;;;;67.25;63.05;;;;;;;7.72;87.00;97501.22;5000985;28;20030;-74
2023/04/25 06:39:15;;;;;;;71.65;66.65;;;;;;;7.51;89.06;97498.19;5003160;28;20037;-74
2023/04/25 06:41:40;;;;;;;71.40;66.90;;;;;;;7.77;87.28;97501.31;4985007;28;20034;-74
2023/04/25 06:44:13;;;;;;;68.47;64.40;;;;;;;8.16;86.50;97509.19;5011912;28;20026;-74
2023/04/25 06:46:47;;;;;;;70.82;66.18;;;;;;;7.47;88.10;97512.31;5010929;28;20030;-74
2023/04/25 06:49:13;;;;;;;71.18;66.78;;;;;;;7.47;89.44;97505.09;5020947;28;20036;-75
2023/04/25 06:51:38;;;;;;;73.60;69.10;;;;;;;7.36;88.87;97505.16;5014296;28;20048;-76
2023/04/25 06:54:05;;;;;;;72.10;67.38;;;;;;;7.35;89.60;97508.91;4994769;28;20157;-74
2023/04/25 06:56:38;;;;;;;75.97;71.18;;;;;;;7.47;89.14;97507.78;5022570;28;20017;-74
2023/04/25 06:59:09;;;;;;;74.20;69.28;;;;;;;7.35;89.46;97512.38;4999620;28;20531;-74
2023/04/25 07:01:37;;;;;;;68.45;64.10;;;;;;;7.32;88.73;97509.38;5028567;28;20486;-72
2023/04/25 07:04:07;;;;;;;71.57;67.00;;;;;;;7.36;88.63;97505.16;5014359;28;20498;-75
2023/04/25 07:06:42;;;;;;;77.35;72.57;;;;;;;7.41;87.47;97505.25;5015428;28;20033;-75
2023/04/25 07:09:11;;;;;;;77.82;72.93;;;;;;;7.46;87.09;97506.16;5009683;28;20175;-75
2023/04/25 07:11:36;;;;;;;80.78;75.63;;;;;;;7.38;88.11;97500.38;5000462;28;20032;-75
2023/04/25 07:14:02;;;;;;;78.50;73.45;;;;;;;7.37;86.92;97517.50;4998903;28;20034;-74
2023/04/25 07:16:28;;;;;;;72.60;68.40;;;;;;;7.51;84.11;97508.13;5020805;28;20463;-74
2023/04/25 07:18:53;;;;;;;75.45;70.95;;;;;;;7.59;85.79;97502.34;5005666;28;20042;-74
2023/04/25 07:21:19;;;;;;;64.10;60.53;;;;;;;7.93;82.98;97504.00;5016900;28;20025;-74
2023/04/25 07:23:46;;;;;;;71.95;67.65;;;;;;;8.53;84.32;97504.09;5000107;28;20426;-75
2023/04/25 07:26:15;;;;;;;57.83;54.60;;;;;;;8.16;82.78;97514.53;5022186;28;20029;-75
2023/04/25 07:29:01;;;;;;;51.42;48.50;;;;;;;8.04;80.87;97519.19;5024092;28;20034;-75
2023/04/25 07:31:26;;;;;;;52.60;49.65;;;;;;;7.63;81.61;97516.91;5022575;28;20037;-74
2023/04/25 07:33:52;;;;;;;56.83;53.58;;;;;;;7.76;82.61;97521.94;5018433;28;20024;-74
2023/04/25 07:36:17;;;;;;;61.15;57.47;;;;;;;7.63;82.69;97522.25;5023525;28;20041;-75
2023/04/25 07:38:44;;;;;;;48.40;45.35;;;;;;;7.44;80.17;97513.63;5011291;28;20030;-74
2023/04/25 07:41:10;;;;;;;61.28;57.75;;;;;;;8.18;82.72;97517.78;5034267;28;20083;-75
2023/04/25 07:43:35;;;;;;;47.38;44.42;;;;;;;8.37;78.99;97507.63;5000172;28;20022;-75
2023/04/25 07:46:02;;;;;;;42.60;39.85;;;;;;;8.30;80.73;97520.41;4997986;28;20041;-74
2023/04/25 07:48:31;;;;;;;44.10;41.30;;;;;;;8.42;79.83;97514.94;5011526;28;20022;-74
2023/04/25 07:50:56;;;;;;;34.47;32.17;;;;;;;7.99;78.68;97531.69;4987024;28;20104;-74
2023/04/25 07:53:22;;;;;;;37.53;35.05;;;;;;;8.17;78.54;97524.19;4994616;28;20023;-75
2023/04/25 07:55:55;;;;;;;36.03;33.72;;;;;;;8.12;78.94;97520.66;4999728;28;20409;-73
2023/04/25 07:58:21;;;;;;;48.10;45.33;;;;;;;8.38;80.94;97530.69;5019114;28;20040;-74
2023/04/25 08:00:49;;;;;;;31.63;29.52;;;;;;;8.13;78.09;97539.16;5014448;28;20076;-74
2023/04/25 08:03:29;;;;;;;36.38;33.88;;;;;;;8.08;78.95;97540.94;4989156;28;20033;-73
2023/04/25 08:05:55;;;;;;;51.35;47.78;;;;;;;8.34;79.69;97543.81;5014495;28;20456;-74
2023/04/25 08:08:22;;;;;;;46.03;42.92;;;;;;;8.15;78.77;97538.91;5025832;28;20036;-74
2023/04/25 08:10:49;;;;;;;33.20;30.73;;;;;;;8.06;75.85;97546.56;5020155;28;20435;-74
2023/04/25 08:13:16;;;;;;;35.28;32.70;;;;;;;8.69;77.33;97548.03;4998342;28;20113;-74
2023/04/25 08:15:41;;;;;;;24.05;22.05;;;;;;;9.11;75.02;97546.44;5027039;28;20124;-75
2023/04/25 08:18:07;;;;;;;35.08;32.53;;;;;;;9.44;77.45;97543.59;5004954;28;20040;-74
2023/04/25 08:20:33;;;;;;;20.83;19.27;;;;;;;9.48;72.88;97547.38;4981131;28;20053;-74
2023/04/25 08:23:01;;;;;;;12.73;11.55;;;;;;;9.19;70.27;97542.50;5017902;28;20468;-74
2023/04/25 08:25:41;;;;;;;18.48;16.88;;;;;;;9.10;75.39;97557.44;5001830;28;20040;-74
2023/04/25 08:28:08;;;;;;;19.05;17.50;;;;;;;8.72;75.04;97550.22;4991706;28;20037;-74
2023/04/25 08:30:34;;;;;;;14.70;13.48;;;;;;;8.60;73.13;97558.41;5016577;28;20468;-74
2023/04/25 08:33:01;;;;;;;20.13;18.40;;;;;;;8.51;76.12;97562.56;5005984;28;20029;-74
2023/04/25 08:35:45;;;;;;;16.42;14.95;;;;;;;8.67;74.18;97560.91;5018353;28;20036;-74
2023/04/25 08:38:11;;;;;;;12.93;11.75;;;;;;;8.66;73.94;97567.34;5021646;28;20133;-74
2023/04/25 08:40:38;;;;;;;11.00;10.00;;;;;;;8.37;73.52;97571.19;5025734;28;20022;-74
2023/04/25 08:43:11;;;;;;;12.05;11.05;;;;;;;8.54;73.74;97582.72;5017562;28;20060;-73
2023/04/25 08:45:41;;;;;;;12.57;11.38;;;;;;;8.68;74.31;97581.31;5011145;28;20030;-75
2023/04/25 08:48:11;;;;;;;13.43;12.23;;;;;;;8.75;73.81;97587.34;5012498;28;20036;-74
2023/04/25 08:50:45;;;;;;;12.98;11.82;;;;;;;8.74;73.46;97583.81;4996712;28;20045;-74
2023/04/25 08:53:16;;;;;;;12.50;10.32;;;;;;;8.29;73.43;97596.56;4996631;28;20048;-74
2023/04/25 08:55:42;;;;;;;10.13;8.15;;;;;;;7.97;72.33;97598.97;5007260;28;20039;-74
2023/04/25 08:58:09;;;;;;;14.35;9.77;;;;;;;8.37;73.29;97609.56;5029291;28;20026;-75
2023/04/25 09:00:35;;;;;;;8.75;7.72;;;;;;;8.10;70.02;97608.53;5006925;28;20131;-74
2023/04/25 09:03:01;;;;;;;9.85;6.90;;;;;;;8.15;71.12;97611.31;5011406;28;20105;-74
2023/04/25 09:05:32;;;;;;;8.23;6.72;;;;;;;8.77;70.86;97609.38;5023993;28;20491;-74
2023/04/25 09:07:58;;;;;;;8.60;5.70;;;;;;;8.84;67.96;97620.75;5002904;28;20040;-74
2023/04/25 09:10:23;;;;;;;7.53;5.47;;;;;;;8.58;67.36;97626.78;5005289;28;20033;-74
2023/04/25 09:13:24;;;;;;;7.53;4.80;;;;;;;8.41;66.25;97625.97;5025830;28;20037;-74
2023/04/25 09:16:21;;;;;;;10.07;5.70;;;;;;;8.26;67.98;97638.09;5013229;28;20029;-74
2023/04/25 09:19:05;;;;;;;7.82;4.85;;;;;;;8.20;67.82;97632.84;5027196;28;20060;-74
2023/04/25 09:21:32;;;;;;;7.88;5.15;;;;;;;8.48;66.97;97632.00;5012551;28;20037;-74
2023/04/25 09:23:59;;;;;;;5.85;4.60;;;;;;;8.66;66.95;97637.13;5009321;28;20029;-74
2023/04/25 09:26:25;;;;;;;8.25;5.38;;;;;;;9.23;66.26;97629.59;5021681;28;20045;-77
2023/04/25 09:29:04;;;;;;;7.53;5.28;;;;;;;9.46;65.18;97630.16;5002317;28;20160;-74
2023/04/25 09:31:33;;;;;;;5.78;4.80;;;;;;;9.29;64.48;97629.38;5021454;28;20395;-74
2023/04/25 09:34:00;;;;;;;7.40;4.85;;;;;;;9.29;65.44;97634.75;5025198;28;20030;-75
2023/04/25 09:36:27;;;;;;;8.35;4.60;;;;;;;8.83;64.37;97629.84;5023646;28;20124;-75
2023/04/25 09:39:22;;;;;;;6.13;4.43;;;;;;;8.78;63.92;97640.50;4996876;28;20029;-74
2023/04/25 09:41:55;;;;;;;6.80;4.07;;;;;;;9.23;63.00;97635.78;5000382;28;20042;-74
2023/04/25 09:44:24;;;;;;;6.05;3.90;;;;;;;9.86;61.70;97628.97;4995519;28;20514;-74
2023/04/25 09:46:53;;;;;;;5.18;4.20;;;;;;;10.44;64.14;97631.69;4995920;28;20018;-74
2023/04/25 09:49:21;;;;;;;6.80;4.20;;;;;;;9.55;61.66;97639.38;5006792;28;20033;-74
2023/04/25 09:52:00;;;;;;;5.05;4.25;;;;;;;9.61;62.65;97638.38;5003721;28;20026;-74
2023/04/25 09:54:30;;;;;;;5.28;4.05;;;;;;;9.61;61.34;97643.75;5018206;28;20036;-75
2023/04/25 09:57:13;;;;;;;5.30;4.22;;;;;;;10.17;61.46;97639.00;4980376;28;20026;-74
2023/04/25 09:59:43;;;;;;;7.82;4.25;;;;;;;9.75;59.85;97655.75;5011310;28;20065;-74
2023/04/25 10:02:10;;;;;;;7.28;3.55;;;;;;;10.76;63.08;97640.53;5021385;28;20029;-75
2023/04/25 10:04:39;;;;;;;5.80;3.08;;;;;;;10.12;60.27;97638.94;5011793;28;20025;-74
2023/04/25 10:07:28;;;;;;;4.05;2.70;;;;;;;10.19;59.06;97642.25;5015099;28;20041;-74
2023/04/25 10:10:03;;;;;;;5.38;3.00;;;;;;;10.82;59.04;97655.69;4995495;28;20038;-74
2023/04/25 10:12:31;;;;;;;4.15;2.83;;;;;;;10.48;59.08;97640.88;5024924;28;20139;-74
2023/04/25 10:14:57;;;;;;;4.22;2.40;;;;;;;10.11;58.58;97645.34;5027659;28;20551;-74
2023/04/25 10:17:23;;;;;;;4.25;2.38;;;;;;;10.04;56.66;97652.81;5027886;28;20045;-73
2023/04/25 10:19:55;;;;;;;2.03;1.80;;;;;;;9.57;56.48;97653.38;5069141;28;20755;-74
2023/04/25 10:22:28;;;;;;;2.80;1.60;;;;;;;10.64;55.22;97655.28;5050842;28;20041;-75
2023/04/25 10:24:55;;;;;;;2.53;1.88;;;;;;;11.08;54.00;97657.44;5067436;28;20063;-75
2023/04/25 10:27:20;;;;;;;1.80;1.65;;;;;;;10.55;55.97;97654.91;5032295;28;20402;-75
2023/04/25 10:30:00;;;;;;;1.88;1.40;;;;;;;10.19;55.08;97650.31;5053913;28;20108;-75
2023/04/25 10:32:25;;;;;;;1.55;1.45;;;;;;;10.17;55.73;97649.75;5034521;28;20039;-75
2023/04/25 10:34:51;;;;;;;2.78;1.65;;;;;;;11.01;54.92;97648.81;5030717;28;20025;-75
2023/04/25 10:37:16;;;;;;;2.58;2.25;;;;;;;10.92;52.67;97641.47;5034130;28;20033;-75
2023/04/25 10:39:42;;;;;;;1.63;1.50;;;;;;;11.34;52.68;97639.53;5030777;28;20395;-75
2023/04/25 10:42:08;;;;;;;3.47;1.67;;;;;;;10.15;54.43;97650.00;5048580;28;20513;-75
2023/04/25 10:44:33;;;;;;;2.10;1.52;;;;;;;10.15;54.97;97643.81;5035200;28;20021;-75
2023/04/25 10:47:01;;;;;;;2.13;1.45;;;;;;;10.12;55.18;97638.94;5032927;28;20041;-75
2023/04/25 10:49:42;;;;;;;2.40;1.77;;;;;;;10.36;55.72;97651.00;5034987;28;20028;-75
2023/04/25 10:52:10;;;;;;;3.17;1.83;;;;;;;9.65;57.15;97661.03;5036240;28;20364;-76
2023/04/25 10:54:40;;;;;;;3.28;1.63;;;;;;;9.59;56.54;97662.00;5046906;28;20063;-75
2023/04/25 10:57:06;;;;;;;3.65;1.70;;;;;;;9.74;54.53;97669.44;5048624;28;20112;-75
2023/04/25 10:59:31;;;;;;;2.67;1.70;;;;;;;10.01;56.08;97664.09;5017104;28;20543;-76
2023/04/25 11:01:57;;;;;;;1.80;1.60;;;;;;;10.12;55.00;97663.16;5047369;28;20045;-75
2023/04/25 11:04:24;;;;;;;2.00;1.80;;;;;;;10.12;56.25;97672.06;5048087;28;20059;-76
2023/04/25 11:07:06;;;;;;;4.70;2.10;;;;;;;10.09;57.11;97669.00;5022191;28;20033;-76
2023/04/25 11:09:36;;;;;;;1.85;1.60;;;;;;;10.12;56.01;97673.91;5023891;28;20038;-75
2023/04/25 11:12:01;;;;;;;3.38;1.85;;;;;;;9.84;55.61;97674.13;5021522;28;20045;-76
2023/04/25 11:14:27;;;;;;;3.28;2.38;;;;;;;10.13;57.51;97678.22;5016797;28;20035;-76
2023/04/25 11:16:56;;;;;;;2.25;2.05;;;;;;;9.55;56.96;97682.41;5035956;28;20096;-76
2023/04/25 11:19:23;;;;;;;2.88;2.00;;;;;;;10.11;58.92;97681.19;5040114;28;20025;-75
2023/04/25 11:21:48;;;;;;;2.70;1.90;;;;;;;9.88;58.27;97686.00;5021749;28;20045;-75
2023/04/25 11:24:13;;;;;;;2.22;1.95;;;;;;;9.77;59.21;97689.66;5033257;28;20029;-76
2023/04/25 11:26:41;;;;;;;2.75;2.10;;;;;;;9.82;59.70;97687.00;5018735;28;20128;-76
2023/04/25 11:29:07;;;;;;;4.45;2.40;;;;;;;9.30;61.77;97700.06;5055596;28;20021;-75
2023/04/25 11:31:32;;;;;;;3.42;2.80;;;;;;;9.47;61.86;97695.47;5007913;28;20084;-75
2023/04/25 11:33:58;;;;;;;2.97;2.47;;;;;;;9.92;59.53;97681.75;5003505;28;20025;-74
2023/04/25 11:36:24;;;;;;;3.58;2.65;;;;;;;10.11;60.06;97685.72;5023021;28;20377;-77
2023/04/25 11:38:51;;;;;;;4.03;2.55;;;;;;;11.01;58.24;97681.13;5027499;28;20022;-77